Zoie — WDC8046 — position and weather

sailwx.info

Track history (hours):
 
Tides and Currents Weather Stations Pressure Air Temp Water Temp Dewpoint Dewpoint Depression Visibility Wind Speed Wind Dir Waves Ship Positions

Zoie

Owner: B & J CORPORATION, LAKE AUTHUR, LA. More information available from US FCC via Universal Licensing System and Coast Guard Vessel Documentation Center.

Last reported at 2017-Dec-14 13:40 UTC. Time now 2017-Dec-15 08:13 UTC.
Position N 29°53' W 092°25'.

Length 17 m.

Type: Towing. MMSI: 367080810.

Date/timePositionNaut miles runAvg speedWind from/ knotsBaromVisibWave heightAir tempDewpointWater temp
2017-Dec-14 13:40N 29°53' W 092°25'2 3.9
2017-Dec-14 13:09N 29°52' W 092°23'1 4.0
2017-Dec-14 13:00N 29°52' W 092°22'2 3.6
2017-Dec-14 12:30N 29°51' W 092°21'2 3.6
2017-Dec-14 12:00N 29°50' W 092°19'2 3.4
2017-Dec-14 11:28N 29°49' W 092°17'2 3.5
2017-Dec-14 11:00N 29°48' W 092°15'2 3.5
2017-Dec-14 10:30N 29°48' W 092°14'1 2.5
2017-Dec-14 10:00N 29°47' W 092°12'1 2.5
2017-Dec-14 09:30N 29°47' W 092°11'1 1.9
2017-Dec-14 09:00N 29°47' W 092°10'1 2.7
2017-Dec-14 08:30N 29°47' W 092°09'1 2.5
2017-Dec-14 08:00N 29°49' W 092°08'1 2.4
2017-Dec-14 07:30N 29°50' W 092°08'1 1.8
2017-Dec-14 06:59N 29°51' W 092°08'2 2.1
2017-Dec-14 05:46N 29°53' W 092°07'1 1.4
2017-Dec-14 05:20N 29°54' W 092°07'0 0.3
2017-Dec-14 04:57N 29°54' W 092°07'0 0.0
2017-Dec-14 04:30N 29°54' W 092°07'1 2.3
2017-Dec-14 03:58N 29°53' W 092°08'2 4.6
2017-Dec-14 03:30N 29°50' W 092°08'3 5.1
2017-Dec-14 03:00N 29°48' W 092°08'3 5.1
2017-Dec-14 02:30N 29°47' W 092°11'2 4.6
2017-Dec-14 02:00N 29°47' W 092°13'3 5.0
2017-Dec-14 01:30N 29°48' W 092°16'4 7.0
2017-Dec-14 01:00N 29°50' W 092°19'3 6.9
2017-Dec-14 00:30N 29°52' W 092°23'  
Track history (hours):
 
Tides and Currents Weather Stations Pressure Air Temp Water Temp Dewpoint Dewpoint Depression Visibility Wind Speed Wind Dir Waves Ship Positions

Zoie

Owner: B & J CORPORATION, LAKE AUTHUR, LA. More information available from US FCC via Universal Licensing System and Coast Guard Vessel Documentation Center.

Last reported at 2017-Dec-14 13:40 UTC. Time now 2017-Dec-15 08:13 UTC.
Position N 29°53' W 092°25'.

Length 17 m.

Type: Towing. MMSI: 367080810.

Date/timePositionNaut miles runAvg speedWind from/ knotsBaromVisibWave heightAir tempDewpointWater temp
2017-Dec-14 13:40N 29°53' W 092°25'2 3.9
2017-Dec-14 13:09N 29°52' W 092°23'1 4.0
2017-Dec-14 13:00N 29°52' W 092°22'2 3.6
2017-Dec-14 12:30N 29°51' W 092°21'2 3.6
2017-Dec-14 12:00N 29°50' W 092°19'2 3.4
2017-Dec-14 11:28N 29°49' W 092°17'2 3.5
2017-Dec-14 11:00N 29°48' W 092°15'2 3.5
2017-Dec-14 10:30N 29°48' W 092°14'1 2.5
2017-Dec-14 10:00N 29°47' W 092°12'1 2.5
2017-Dec-14 09:30N 29°47' W 092°11'1 1.9
2017-Dec-14 09:00N 29°47' W 092°10'1 2.7
2017-Dec-14 08:30N 29°47' W 092°09'1 2.5
2017-Dec-14 08:00N 29°49' W 092°08'1 2.4
2017-Dec-14 07:30N 29°50' W 092°08'1 1.8
2017-Dec-14 06:59N 29°51' W 092°08'2 2.1
2017-Dec-14 05:46N 29°53' W 092°07'1 1.4
2017-Dec-14 05:20N 29°54' W 092°07'0 0.3
2017-Dec-14 04:57N 29°54' W 092°07'0 0.0
2017-Dec-14 04:30N 29°54' W 092°07'1 2.3
2017-Dec-14 03:58N 29°53' W 092°08'2 4.6
2017-Dec-14 03:30N 29°50' W 092°08'3 5.1
2017-Dec-14 03:00N 29°48' W 092°08'3 5.1
2017-Dec-14 02:30N 29°47' W 092°11'2 4.6
2017-Dec-14 02:00N 29°47' W 092°13'3 5.0
2017-Dec-14 01:30N 29°48' W 092°16'4 7.0
2017-Dec-14 01:00N 29°50' W 092°19'3 6.9
2017-Dec-14 00:30N 29°52' W 092°23'  

Dump ship's entire track history